sensor_id;sensor_type;location;lat;lon;timestamp;pressure;altitude;pressure_sealevel;temperature;humidity
63343;BME280;49465;57.664;39.686;2023-04-01T00:01:03;99063.56;;;4.55;61.17
63343;BME280;49465;57.664;39.686;2023-04-01T00:03:30;99061.03;;;4.54;61.52
63343;BME280;49465;57.664;39.686;2023-04-01T00:06:00;99054.88;;;4.71;61.22
63343;BME280;49465;57.664;39.686;2023-04-01T00:08:29;99059.19;;;4.56;61.82
63343;BME280;49465;57.664;39.686;2023-04-01T00:10:59;99059.28;;;4.54;61.26
63343;BME280;49465;57.664;39.686;2023-04-01T00:13:26;99051.50;;;4.54;61.70
63343;BME280;49465;57.664;39.686;2023-04-01T00:15:56;99055.97;;;4.67;62.08
63343;BME280;49465;57.664;39.686;2023-04-01T00:18:23;99050.66;;;4.54;61.80
63343;BME280;49465;57.664;39.686;2023-04-01T00:20:56;99049.09;;;4.66;61.47
63343;BME280;49465;57.664;39.686;2023-04-01T00:23:22;99054.38;;;4.50;61.39
63343;BME280;49465;57.664;39.686;2023-04-01T00:25:52;99050.84;;;4.51;61.26
63343;BME280;49465;57.664;39.686;2023-04-01T00:28:20;99054.09;;;4.54;61.87
63343;BME280;49465;57.664;39.686;2023-04-01T00:30:46;99043.97;;;4.50;61.75
63343;BME280;49465;57.664;39.686;2023-04-01T00:33:13;99053.53;;;4.49;61.43
63343;BME280;49465;57.664;39.686;2023-04-01T00:35:45;99045.75;;;4.49;61.36
63343;BME280;49465;57.664;39.686;2023-04-01T00:38:12;99049.19;;;4.50;61.78
63343;BME280;49465;57.664;39.686;2023-04-01T00:40:44;99041.03;;;4.70;61.46
63343;BME280;49465;57.664;39.686;2023-04-01T00:43:17;99051.59;;;4.67;62.08
63343;BME280;49465;57.664;39.686;2023-04-01T00:45:50;99050.94;;;4.64;61.46
63343;BME280;49465;57.664;39.686;2023-04-01T00:48:21;99041.59;;;4.61;61.69
63343;BME280;49465;57.664;39.686;2023-04-01T00:50:56;99034.72;;;4.60;61.95
63343;BME280;49465;57.664;39.686;2023-04-01T00:53:24;99048.44;;;4.48;61.68
63343;BME280;49465;57.664;39.686;2023-04-01T00:59:04;99046.97;;;4.87;61.80
63343;BME280;49465;57.664;39.686;2023-04-01T01:01:35;99044.66;;;4.53;61.38
63343;BME280;49465;57.664;39.686;2023-04-01T01:04:02;99049.34;;;4.47;61.46
63343;BME280;49465;57.664;39.686;2023-04-01T01:14:48;99047.34;;;4.81;61.10
63343;BME280;49465;57.664;39.686;2023-04-01T01:18:12;99045.50;;;4.83;60.95
63343;BME280;49465;57.664;39.686;2023-04-01T01:20:33;99052.25;;;4.85;61.10
63343;BME280;49465;57.664;39.686;2023-04-01T01:29:41;99049.94;;;4.95;61.18
63343;BME280;49465;57.664;39.686;2023-04-01T01:37:51;99054.28;;;4.66;61.15
63343;BME280;49465;57.664;39.686;2023-04-01T01:40:19;99047.78;;;4.44;61.52
63343;BME280;49465;57.664;39.686;2023-04-01T01:42:56;99052.50;;;4.52;61.42
63343;BME280;49465;57.664;39.686;2023-04-01T01:45:38;99049.91;;;4.52;61.60
63343;BME280;49465;57.664;39.686;2023-04-01T01:48:08;99048.44;;;4.48;60.95
63343;BME280;49465;57.664;39.686;2023-04-01T01:50:39;99052.97;;;4.44;61.63
63343;BME280;49465;57.664;39.686;2023-04-01T01:53:14;99049.00;;;4.53;61.18
63343;BME280;49465;57.664;39.686;2023-04-01T01:55:47;99045.09;;;4.60;61.40
63343;BME280;49465;57.664;39.686;2023-04-01T02:01:07;99038.06;;;4.91;61.42
63343;BME280;49465;57.664;39.686;2023-04-01T02:03:40;99052.88;;;4.60;62.08
63343;BME280;49465;57.664;39.686;2023-04-01T02:06:16;99051.41;;;4.56;61.76
63343;BME280;49465;57.664;39.686;2023-04-01T02:08:50;99045.75;;;4.64;61.88
63343;BME280;49465;57.664;39.686;2023-04-01T02:11:28;99051.25;;;4.59;61.72
63343;BME280;49465;57.664;39.686;2023-04-01T02:16:41;99044.94;;;4.78;61.59
63343;BME280;49465;57.664;39.686;2023-04-01T02:19:11;99054.72;;;4.44;61.35
63343;BME280;49465;57.664;39.686;2023-04-01T02:21:40;99057.41;;;4.42;61.92
63343;BME280;49465;57.664;39.686;2023-04-01T02:24:12;99051.78;;;4.50;62.27
63343;BME280;49465;57.664;39.686;2023-04-01T02:26:40;99055.91;;;4.38;61.58
63343;BME280;49465;57.664;39.686;2023-04-01T02:29:07;99061.94;;;4.39;61.86
63343;BME280;49465;57.664;39.686;2023-04-01T02:31:35;99053.41;;;4.36;62.22
63343;BME280;49465;57.664;39.686;2023-04-01T02:34:04;99053.78;;;4.45;62.47
63343;BME280;49465;57.664;39.686;2023-04-01T02:36:32;99060.19;;;4.39;62.17
63343;BME280;49465;57.664;39.686;2023-04-01T02:38:59;99055.91;;;4.38;62.29
63343;BME280;49465;57.664;39.686;2023-04-01T02:41:28;99061.13;;;4.38;62.42
63343;BME280;49465;57.664;39.686;2023-04-01T02:43:58;99061.19;;;4.36;62.22
63343;BME280;49465;57.664;39.686;2023-04-01T02:46:25;99063.78;;;4.36;62.33
63343;BME280;49465;57.664;39.686;2023-04-01T02:48:52;99057.69;;;4.38;61.75
63343;BME280;49465;57.664;39.686;2023-04-01T02:51:21;99059.34;;;4.39;61.72
63343;BME280;49465;57.664;39.686;2023-04-01T02:53:54;99058.00;;;4.62;62.30
63343;BME280;49465;57.664;39.686;2023-04-01T02:56:21;99056.00;;;4.36;61.93
63343;BME280;49465;57.664;39.686;2023-04-01T02:58:47;99059.53;;;4.35;62.43
63343;BME280;49465;57.664;39.686;2023-04-01T03:01:14;99057.84;;;4.34;62.42
63343;BME280;49465;57.664;39.686;2023-04-01T03:03:41;99060.44;;;4.34;61.86
63343;BME280;49465;57.664;39.686;2023-04-01T03:06:12;99057.72;;;4.52;63.01
63343;BME280;49465;57.664;39.686;2023-04-01T03:08:40;99068.16;;;4.36;62.30
63343;BME280;49465;57.664;39.686;2023-04-01T03:11:10;99068.00;;;4.39;62.70
63343;BME280;49465;57.664;39.686;2023-04-01T03:13:40;99064.63;;;4.37;62.49
63343;BME280;49465;57.664;39.686;2023-04-01T03:16:13;99060.31;;;4.52;62.62
63343;BME280;49465;57.664;39.686;2023-04-01T03:18:42;99075.13;;;4.50;62.96
63343;BME280;49465;57.664;39.686;2023-04-01T03:21:19;99075.25;;;4.63;62.89
63343;BME280;49465;57.664;39.686;2023-04-01T03:23:49;99075.78;;;4.53;62.28
63343;BME280;49465;57.664;39.686;2023-04-01T03:26:21;99080.09;;;4.39;62.46
63343;BME280;49465;57.664;39.686;2023-04-01T03:28:48;99078.38;;;4.39;62.22
63343;BME280;49465;57.664;39.686;2023-04-01T03:31:15;99078.44;;;4.38;62.55
63343;BME280;49465;57.664;39.686;2023-04-01T03:33:42;99079.28;;;4.38;62.88
63343;BME280;49465;57.664;39.686;2023-04-01T03:36:09;99075.84;;;4.38;62.92
63343;BME280;49465;57.664;39.686;2023-04-01T03:38:38;99083.56;;;4.39;62.38
63343;BME280;49465;57.664;39.686;2023-04-01T03:41:05;99081.88;;;4.38;62.14
63343;BME280;49465;57.664;39.686;2023-04-01T03:43:31;99088.84;;;4.38;62.55
63343;BME280;49465;57.664;39.686;2023-04-01T03:45:58;99079.28;;;4.38;62.97
63343;BME280;49465;57.664;39.686;2023-04-01T03:48:25;99081.78;;;4.40;62.57
63343;BME280;49465;57.664;39.686;2023-04-01T03:50:52;99089.56;;;4.40;62.70
63343;BME280;49465;57.664;39.686;2023-04-01T03:53:24;99084.31;;;4.41;62.93
63343;BME280;49465;57.664;39.686;2023-04-01T03:55:50;99088.63;;;4.41;63.09
63343;BME280;49465;57.664;39.686;2023-04-01T03:58:17;99093.75;;;4.42;62.20
63343;BME280;49465;57.664;39.686;2023-04-01T04:00:44;99091.97;;;4.43;62.93
63343;BME280;49465;57.664;39.686;2023-04-01T04:03:10;99094.56;;;4.43;62.16
63343;BME280;49465;57.664;39.686;2023-04-01T04:05:49;99102.50;;;4.70;62.44
63343;BME280;49465;57.664;39.686;2023-04-01T04:08:17;99098.50;;;4.50;62.46
63343;BME280;49465;57.664;39.686;2023-04-01T04:10:47;99101.25;;;4.47;62.96
63343;BME280;49465;57.664;39.686;2023-04-01T04:13:14;99095.72;;;4.53;62.20
63343;BME280;49465;57.664;39.686;2023-04-01T04:15:43;99099.19;;;4.68;62.58
63343;BME280;49465;57.664;39.686;2023-04-01T04:18:10;99098.06;;;4.58;61.76
63343;BME280;49465;57.664;39.686;2023-04-01T04:20:36;99101.47;;;4.58;62.59
63343;BME280;49465;57.664;39.686;2023-04-01T04:23:03;99099.72;;;4.59;62.61
63343;BME280;49465;57.664;39.686;2023-04-01T04:25:29;99095.38;;;4.59;62.20
63343;BME280;49465;57.664;39.686;2023-04-01T04:27:56;99102.97;;;4.62;62.64
63343;BME280;49465;57.664;39.686;2023-04-01T04:30:25;99099.53;;;4.62;61.88
63343;BME280;49465;57.664;39.686;2023-04-01T04:32:52;99107.16;;;4.65;62.44
63343;BME280;49465;57.664;39.686;2023-04-01T04:35:21;99104.56;;;4.65;62.55
63343;BME280;49465;57.664;39.686;2023-04-01T04:37:47;99110.59;;;4.65;62.39
63343;BME280;49465;57.664;39.686;2023-04-01T04:40:17;99110.50;;;4.81;62.11
63343;BME280;49465;57.664;39.686;2023-04-01T04:42:52;99110.16;;;5.02;62.60
63343;BME280;49465;57.664;39.686;2023-04-01T04:45:18;99105.94;;;4.70;62.03
63343;BME280;49465;57.664;39.686;2023-04-01T04:47:48;99106.78;;;4.71;61.64
63343;BME280;49465;57.664;39.686;2023-04-01T04:50:19;99111.03;;;4.72;62.10
63343;BME280;49465;57.664;39.686;2023-04-01T04:52:46;99110.06;;;4.74;61.63
63343;BME280;49465;57.664;39.686;2023-04-01T04:55:13;99116.25;;;4.72;61.98
63343;BME280;49465;57.664;39.686;2023-04-01T04:57:41;99114.38;;;4.74;61.82
63343;BME280;49465;57.664;39.686;2023-04-01T05:00:08;99121.19;;;4.77;62.07
63343;BME280;49465;57.664;39.686;2023-04-01T05:02:36;99117.66;;;4.78;61.53
63343;BME280;49465;57.664;39.686;2023-04-01T05:05:02;99116.63;;;4.80;61.83
63343;BME280;49465;57.664;39.686;2023-04-01T05:07:29;99120.06;;;4.81;61.82
63343;BME280;49465;57.664;39.686;2023-04-01T05:09:58;99122.59;;;4.97;62.59
63343;BME280;49465;57.664;39.686;2023-04-01T05:12:28;99124.31;;;4.82;61.52
63343;BME280;49465;57.664;39.686;2023-04-01T05:14:54;99126.00;;;4.83;62.11
63343;BME280;49465;57.664;39.686;2023-04-01T05:17:21;99119.03;;;4.83;62.44
63343;BME280;49465;57.664;39.686;2023-04-01T05:19:47;99131.00;;;4.86;62.32
63343;BME280;49465;57.664;39.686;2023-04-01T05:22:14;99127.50;;;4.87;61.91
63343;BME280;49465;57.664;39.686;2023-04-01T05:24:46;99125.84;;;5.00;61.93
63343;BME280;49465;57.664;39.686;2023-04-01T05:27:15;99122.22;;;4.88;62.02
63343;BME280;49465;57.664;39.686;2023-04-01T05:29:44;99122.22;;;4.88;62.01
63343;BME280;49465;57.664;39.686;2023-04-01T05:32:14;99122.13;;;5.04;62.35
63343;BME280;49465;57.664;39.686;2023-04-01T05:34:46;99121.75;;;4.96;61.77
63343;BME280;49465;57.664;39.686;2023-04-01T05:37:19;99127.59;;;5.00;61.28
63343;BME280;49465;57.664;39.686;2023-04-01T05:39:50;99128.44;;;5.14;61.75
63343;BME280;49465;57.664;39.686;2023-04-01T05:42:21;99125.75;;;5.16;62.06
63343;BME280;49465;57.664;39.686;2023-04-01T05:44:48;99132.69;;;5.01;61.84
63343;BME280;49465;57.664;39.686;2023-04-01T05:47:14;99125.84;;;5.00;62.05
63343;BME280;49465;57.664;39.686;2023-04-01T05:49:41;99126.75;;;4.99;62.15
63343;BME280;49465;57.664;39.686;2023-04-01T05:52:13;99124.91;;;5.01;62.38
63343;BME280;49465;57.664;39.686;2023-04-01T05:54:42;99128.44;;;5.00;61.80
63343;BME280;49465;57.664;39.686;2023-04-01T05:57:09;99132.63;;;5.03;61.92
63343;BME280;49465;57.664;39.686;2023-04-01T05:59:38;99134.38;;;5.17;62.65
63343;BME280;49465;57.664;39.686;2023-04-01T06:02:04;99135.94;;;5.05;61.72
63343;BME280;49465;57.664;39.686;2023-04-01T06:04:49;99135.56;;;5.54;62.58
63343;BME280;49465;57.664;39.686;2023-04-01T06:07:21;99138.19;;;5.11;61.58
63343;BME280;49465;57.664;39.686;2023-04-01T06:09:47;99146.06;;;5.09;61.83
63343;BME280;49465;57.664;39.686;2023-04-01T06:12:39;99150.03;;;5.58;61.58
63343;BME280;49465;57.664;39.686;2023-04-01T06:26:56;99154.59;;;5.40;62.32
63343;BME280;49465;57.664;39.686;2023-04-01T06:52:41;99162.59;;;5.51;61.50
63343;BME280;49465;57.664;39.686;2023-04-01T06:55:43;99170.28;;;5.96;61.22
63343;BME280;49465;57.664;39.686;2023-04-01T07:01:55;99171.88;;;6.11;61.25
63343;BME280;49465;57.664;39.686;2023-04-01T07:04:32;99179.66;;;5.84;61.16
63343;BME280;49465;57.664;39.686;2023-04-01T07:07:10;99175.94;;;5.74;61.14
63343;BME280;49465;57.664;39.686;2023-04-01T07:09:48;99181.25;;;5.72;61.36
63343;BME280;49465;57.664;39.686;2023-04-01T07:12:25;99181.13;;;5.88;61.57
63343;BME280;49465;57.664;39.686;2023-04-01T07:14:55;99178.53;;;5.74;60.88
63343;BME280;49465;57.664;39.686;2023-04-01T07:17:31;99180.00;;;5.78;61.37
63343;BME280;49465;57.664;39.686;2023-04-01T07:22:59;99180.94;;;6.06;61.35
63343;BME280;49465;57.664;39.686;2023-04-01T07:26:03;99183.28;;;5.96;61.19
63343;BME280;49465;57.664;39.686;2023-04-01T07:28:22;99181.31;;;5.85;61.29
63343;BME280;49465;57.664;39.686;2023-04-01T07:31:05;99184.94;;;5.97;61.26
63343;BME280;49465;57.664;39.686;2023-04-01T07:36:47;99189.44;;;6.22;60.64
63343;BME280;49465;57.664;39.686;2023-04-01T08:00:42;99212.50;;;6.14;61.09
63343;BME280;49465;57.664;39.686;2023-04-01T08:06:10;99214.47;;;6.38;60.99
63343;BME280;49465;57.664;39.686;2023-04-01T08:08:56;99219.34;;;6.57;60.70
63343;BME280;49465;57.664;39.686;2023-04-01T08:11:36;99222.06;;;6.55;60.95
63343;BME280;49465;57.664;39.686;2023-04-01T08:17:32;99226.38;;;6.42;60.17
63343;BME280;49465;57.664;39.686;2023-04-01T08:25:58;99235.59;;;6.60;60.81
63343;BME280;49465;57.664;39.686;2023-04-01T08:29:00;99236.75;;;7.09;60.46
63343;BME280;49465;57.664;39.686;2023-04-01T08:31:36;99244.84;;;6.79;60.19
63343;BME280;49465;57.664;39.686;2023-04-01T08:34:07;99245.75;;;6.78;60.23
63343;BME280;49465;57.664;39.686;2023-04-01T08:36:46;99243.38;;;6.87;59.75
63343;BME280;49465;57.664;39.686;2023-04-01T08:39:21;99251.84;;;6.91;60.28
63343;BME280;49465;57.664;39.686;2023-04-01T08:42:47;99256.97;;;7.05;60.06
63343;BME280;49465;57.664;39.686;2023-04-01T08:56:23;99268.91;;;7.35;59.08
63343;BME280;49465;57.664;39.686;2023-04-01T09:19:39;99281.00;;;7.23;58.75
63343;BME280;49465;57.664;39.686;2023-04-01T09:25:29;99300.31;;;7.72;58.22
63343;BME280;49465;57.664;39.686;2023-04-01T09:28:17;99293.44;;;7.45;58.45
63343;BME280;49465;57.664;39.686;2023-04-01T09:31:09;99293.44;;;7.71;58.37
63343;BME280;49465;57.664;39.686;2023-04-01T09:34:09;99299.06;;;7.90;58.36
63343;BME280;49465;57.664;39.686;2023-04-01T09:44:40;99306.56;;;8.08;58.38
63343;BME280;49465;57.664;39.686;2023-04-01T10:36:57;99367.31;;;8.85;55.98
63343;BME280;49465;57.664;39.686;2023-04-01T10:58:09;99387.94;;;9.49;54.80
63343;BME280;49465;57.664;39.686;2023-04-01T11:10:06;99392.00;;;9.54;54.68
63343;BME280;49465;57.664;39.686;2023-04-01T11:21:53;99408.09;;;9.72;53.73
63343;BME280;49465;57.664;39.686;2023-04-01T11:24:39;99406.25;;;9.49;54.05
63343;BME280;49465;57.664;39.686;2023-04-01T11:35:42;99416.63;;;9.51;54.43
63343;BME280;49465;57.664;39.686;2023-04-01T11:47:10;99425.50;;;9.73;54.12
63343;BME280;49465;57.664;39.686;2023-04-01T12:09:25;99452.97;;;9.43;54.36
63343;BME280;49465;57.664;39.686;2023-04-01T12:15:14;99467.44;;;9.60;54.40
63343;BME280;49465;57.664;39.686;2023-04-01T12:17:48;99460.06;;;9.41;54.05
63343;BME280;49465;57.664;39.686;2023-04-01T12:20:34;99461.41;;;9.46;54.48
63343;BME280;49465;57.664;39.686;2023-04-01T12:23:17;99458.59;;;9.25;54.04
63343;BME280;49465;57.664;39.686;2023-04-01T12:45:35;99486.53;;;9.49;53.40
63343;BME280;49465;57.664;39.686;2023-04-01T12:53:58;99496.16;;;9.48;53.54
63343;BME280;49465;57.664;39.686;2023-04-01T13:02:13;99502.00;;;9.52;53.41
63343;BME280;49465;57.664;39.686;2023-04-01T13:27:13;99515.00;;;9.54;53.13
63343;BME280;49465;57.664;39.686;2023-04-01T13:29:47;99522.63;;;9.20;53.08
63343;BME280;49465;57.664;39.686;2023-04-01T13:40:36;99537.66;;;9.29;53.50
63343;BME280;49465;57.664;39.686;2023-04-01T13:43:21;99538.72;;;9.26;53.30
63343;BME280;49465;57.664;39.686;2023-04-01T13:54:12;99547.00;;;9.33;53.94
63343;BME280;49465;57.664;39.686;2023-04-01T13:59:32;99561.81;;;9.33;54.59
63343;BME280;49465;57.664;39.686;2023-04-01T14:10:58;99565.16;;;9.35;53.92
63343;BME280;49465;57.664;39.686;2023-04-01T14:19:03;99581.13;;;8.93;54.18
63343;BME280;49465;57.664;39.686;2023-04-01T14:24:18;99592.66;;;8.78;54.57
63343;BME280;49465;57.664;39.686;2023-04-01T14:38:46;99612.63;;;8.79;54.70
63343;BME280;49465;57.664;39.686;2023-04-01T14:41:50;99616.38;;;9.13;54.61
63343;BME280;49465;57.664;39.686;2023-04-01T14:50:29;99637.41;;;8.86;54.07
63343;BME280;49465;57.664;39.686;2023-04-01T14:55:49;99640.44;;;8.80;54.55
63343;BME280;49465;57.664;39.686;2023-04-01T14:58:20;99638.72;;;8.66;54.70
63343;BME280;49465;57.664;39.686;2023-04-01T15:03:52;99642.72;;;8.71;55.20
63343;BME280;49465;57.664;39.686;2023-04-01T15:09:24;99662.81;;;8.84;54.04
63343;BME280;49465;57.664;39.686;2023-04-01T15:14:43;99658.16;;;8.49;54.69
63343;BME280;49465;57.664;39.686;2023-04-01T15:26:01;99674.50;;;8.65;54.43
63343;BME280;49465;57.664;39.686;2023-04-01T15:31:32;99676.88;;;8.56;54.42
63343;BME280;49465;57.664;39.686;2023-04-01T15:40:45;99692.75;;;8.52;55.33
63343;BME280;49465;57.664;39.686;2023-04-01T16:02:32;99730.41;;;8.36;55.35
63343;BME280;49465;57.664;39.686;2023-04-01T16:13:12;99732.28;;;8.19;55.34
63343;BME280;49465;57.664;39.686;2023-04-01T16:23:57;99737.81;;;8.15;55.15
63343;BME280;49465;57.664;39.686;2023-04-01T16:31:50;99742.59;;;8.08;55.59
63343;BME280;49465;57.664;39.686;2023-04-01T16:37:47;99751.56;;;8.31;55.51
63343;BME280;49465;57.664;39.686;2023-04-01T16:43:35;99765.53;;;8.03;55.51
63343;BME280;49465;57.664;39.686;2023-04-01T16:51:24;99761.34;;;7.71;55.88
63343;BME280;49465;57.664;39.686;2023-04-01T16:56:55;99767.41;;;8.01;56.02
63343;BME280;49465;57.664;39.686;2023-04-01T17:10:50;99766.19;;;8.06;56.02
63343;BME280;49465;57.664;39.686;2023-04-01T17:13:25;99768.75;;;8.62;54.02
63343;BME280;49465;57.664;39.686;2023-04-01T17:27:37;99768.16;;;7.45;56.30
63343;BME280;49465;57.664;39.686;2023-04-01T17:35:48;99773.19;;;7.63;56.70
63343;BME280;49465;57.664;39.686;2023-04-01T17:38:48;99776.81;;;7.60;56.80
63343;BME280;49465;57.664;39.686;2023-04-01T17:41:47;99775.25;;;7.86;56.16
63343;BME280;49465;57.664;39.686;2023-04-01T18:11:34;99801.97;;;7.61;57.45
63343;BME280;49465;57.664;39.686;2023-04-01T18:25:41;99813.91;;;7.65;58.12
63343;BME280;49465;57.664;39.686;2023-04-01T18:28:36;99814.94;;;7.63;57.96
63343;BME280;49465;57.664;39.686;2023-04-01T18:31:23;99814.94;;;7.18;57.63
63343;BME280;49465;57.664;39.686;2023-04-01T18:34:06;99814.34;;;7.43;57.84
63343;BME280;49465;57.664;39.686;2023-04-01T18:36:51;99809.66;;;7.34;58.34
63343;BME280;49465;57.664;39.686;2023-04-01T18:39:41;99814.75;;;7.66;57.77
63343;BME280;49465;57.664;39.686;2023-04-01T18:42:50;99814.94;;;7.63;58.16
63343;BME280;49465;57.664;39.686;2023-04-01T18:46:13;99813.09;;;7.65;57.40
63343;BME280;49465;57.664;39.686;2023-04-01T18:48:57;99815.59;;;7.66;57.59
63343;BME280;49465;57.664;39.686;2023-04-01T18:54:29;99812.75;;;7.41;58.29
63343;BME280;49465;57.664;39.686;2023-04-01T19:00:26;99811.00;;;7.56;58.03
63343;BME280;49465;57.664;39.686;2023-04-01T19:03:16;99808.25;;;7.59;58.30
63343;BME280;49465;57.664;39.686;2023-04-01T19:05:51;99815.03;;;7.17;58.07
63343;BME280;49465;57.664;39.686;2023-04-01T19:08:39;99810.19;;;7.55;58.23
63343;BME280;49465;57.664;39.686;2023-04-01T19:17:00;99811.56;;;7.46;57.97
63343;BME280;49465;57.664;39.686;2023-04-01T19:25:07;99815.47;;;7.09;58.12
63343;BME280;49465;57.664;39.686;2023-04-01T19:28:07;99806.72;;;7.55;58.45
63343;BME280;49465;57.664;39.686;2023-04-01T19:31:22;99809.88;;;7.45;58.34
63343;BME280;49465;57.664;39.686;2023-04-01T19:43:03;99810.75;;;7.16;58.27
63343;BME280;49465;57.664;39.686;2023-04-01T19:52:00;99813.41;;;7.44;58.60
63343;BME280;49465;57.664;39.686;2023-04-01T19:54:45;99814.88;;;7.20;58.81
63343;BME280;49465;57.664;39.686;2023-04-01T19:57:38;99810.25;;;7.39;58.79
63343;BME280;49465;57.664;39.686;2023-04-01T20:03:11;99812.06;;;7.23;59.06
63343;BME280;49465;57.664;39.686;2023-04-01T20:05:49;99810.34;;;7.07;59.01
63343;BME280;49465;57.664;39.686;2023-04-01T20:12:06;99819.00;;;7.52;57.82
63343;BME280;49465;57.664;39.686;2023-04-01T20:14:46;99819.19;;;7.05;58.59
63343;BME280;49465;57.664;39.686;2023-04-01T20:17:55;99828.69;;;7.50;58.19
63343;BME280;49465;57.664;39.686;2023-04-01T20:20:30;99828.34;;;7.12;59.15
63343;BME280;49465;57.664;39.686;2023-04-01T20:28:13;99827.50;;;6.96;59.29
63343;BME280;49465;57.664;39.686;2023-04-01T20:31:12;99845.22;;;7.21;59.40
63343;BME280;49465;57.664;39.686;2023-04-01T20:34:15;99844.97;;;7.09;58.82
63343;BME280;49465;57.664;39.686;2023-04-01T20:53:16;99842.56;;;7.06;58.64
63343;BME280;49465;57.664;39.686;2023-04-01T21:01:38;99842.63;;;7.80;56.48
63343;BME280;49465;57.664;39.686;2023-04-01T21:07:44;99851.59;;;7.15;58.92
63343;BME280;49465;57.664;39.686;2023-04-01T21:21:15;99862.34;;;6.95;58.95
63343;BME280;49465;57.664;39.686;2023-04-01T21:29:44;99865.06;;;7.23;58.65
63343;BME280;49465;57.664;39.686;2023-04-01T21:38:16;99869.25;;;6.64;58.40
63343;BME280;49465;57.664;39.686;2023-04-01T22:07:06;99869.63;;;6.88;59.40
63343;BME280;49465;57.664;39.686;2023-04-01T22:12:26;99858.72;;;6.81;59.50
63343;BME280;49465;57.664;39.686;2023-04-01T22:18:21;99863.66;;;7.18;58.45
63343;BME280;49465;57.664;39.686;2023-04-01T22:21:03;99862.44;;;6.77;59.27
63343;BME280;49465;57.664;39.686;2023-04-01T22:33:07;99863.88;;;6.67;59.42
63343;BME280;49465;57.664;39.686;2023-04-01T22:43:19;99867.66;;;6.77;59.74
63343;BME280;49465;57.664;39.686;2023-04-01T22:49:03;99875.47;;;6.77;59.64
63343;BME280;49465;57.664;39.686;2023-04-01T22:54:42;99870.31;;;6.91;59.45
63343;BME280;49465;57.664;39.686;2023-04-01T23:06:00;99882.91;;;6.99;59.35
63343;BME280;49465;57.664;39.686;2023-04-01T23:11:13;99892.59;;;6.65;59.94
63343;BME280;49465;57.664;39.686;2023-04-01T23:20:17;99891.09;;;6.93;60.02
63343;BME280;49465;57.664;39.686;2023-04-01T23:26:07;99861.94;;;6.86;59.31
63343;BME280;49465;57.664;39.686;2023-04-01T23:28:51;99866.47;;;6.83;59.97
63343;BME280;49465;57.664;39.686;2023-04-01T23:31:38;99865.97;;;6.92;60.40
63343;BME280;49465;57.664;39.686;2023-04-01T23:34:20;99880.34;;;6.67;60.32
63343;BME280;49465;57.664;39.686;2023-04-01T23:36:50;99881.44;;;6.47;60.17
63343;BME280;49465;57.664;39.686;2023-04-01T23:39:29;99869.91;;;6.67;60.56
63343;BME280;49465;57.664;39.686;2023-04-01T23:42:06;99871.00;;;6.63;60.24
63343;BME280;49465;57.664;39.686;2023-04-01T23:44:43;99872.19;;;6.73;60.53
63343;BME280;49465;57.664;39.686;2023-04-01T23:47:18;99878.06;;;6.61;60.58
63343;BME280;49465;57.664;39.686;2023-04-01T23:50:11;99882.44;;;6.77;60.81
63343;BME280;49465;57.664;39.686;2023-04-01T23:52:43;99876.72;;;6.54;60.29
63343;BME280;49465;57.664;39.686;2023-04-01T23:55:25;99865.28;;;6.41;60.08
63343;BME280;49465;57.664;39.686;2023-04-01T23:58:12;99882.94;;;6.83;60.58
